Time;durP1;ratioP1;P1;durP2;ratioP2;P2;SDS_P1;SDS_P2;PMS_P1;PMS_P2;Temp;Humidity;BMP_temperature;BMP_pressure;BME280_temperature;BME280_humidity;BME280_pressure;Samples;Min_cycle;Max_cycle;Signal;HPM_P1;HPM_P2
2023/10/13 00:01:08;;;;;;;16.50;12.83;;;;;;;13.46;100.00;102613.50;4997110;28;20474;-70
2023/10/13 00:03:33;;;;;;;21.67;14.37;;;;;;;13.45;100.00;102630.66;4992026;28;20243;-70
2023/10/13 00:06:03;;;;;;;20.50;14.70;;;;;;;13.59;100.00;102675.78;4995535;28;20445;-69
2023/10/13 00:08:29;;;;;;;21.53;14.30;;;;;;;13.64;100.00;102704.94;5000149;28;20260;-69
2023/10/13 00:10:59;;;;;;;22.47;15.00;;;;;;;13.70;100.00;102733.88;4997994;28;20453;-69
2023/10/13 00:13:27;;;;;;;24.77;14.67;;;;;;;13.71;100.00;102760.69;5001545;28;20436;-69
2023/10/13 00:15:58;;;;;;;26.00;17.40;;;;;;;13.67;100.00;102799.78;5000356;28;20440;-69
2023/10/13 00:18:54;;;;;;;25.37;16.73;;;;;;;13.68;100.00;102838.38;4995329;28;20558;-69
2023/10/13 00:21:19;;;;;;;31.97;18.53;;;;;;;13.43;100.00;102842.97;4992603;28;20460;-70
2023/10/13 00:23:54;;;;;;;26.83;18.60;;;;;;;13.74;100.00;102943.75;4994723;28;20953;-69
2023/10/13 00:26:28;;;;;;;32.00;20.83;;;;;;;13.78;100.00;102973.91;4996574;28;20487;-69
2023/10/13 00:31:36;;;;;;;30.43;20.10;;;;;;;13.78;100.00;103012.50;4995698;28;20508;-69
2023/10/13 00:34:12;;;;;;;27.30;19.67;;;;;;;13.88;100.00;103041.19;4999854;28;20497;-69
2023/10/13 00:39:23;;;;;;;33.23;21.67;;;;;;;13.93;100.00;103063.94;4991915;28;20467;-69
2023/10/13 00:41:59;;;;;;;34.17;22.93;;;;;;;13.99;100.00;103094.81;4997231;28;20444;-70
2023/10/13 00:44:44;;;;;;;40.47;25.30;;;;;;;13.87;100.00;103112.34;4998377;28;20494;-69
2023/10/13 00:47:16;;;;;;;40.20;26.03;;;;;;;14.08;100.00;103271.91;4998940;28;20451;-69
2023/10/13 00:49:47;;;;;;;36.80;25.83;;;;;;;14.13;100.00;103247.16;4993984;28;20535;-70
2023/10/13 00:52:15;;;;;;;39.43;24.67;;;;;;;13.99;100.00;103218.94;4993514;28;20448;-70
2023/10/13 00:54:45;;;;;;;38.03;26.00;;;;;;;13.64;100.00;103134.50;4999368;28;20947;-69
2023/10/13 00:57:28;;;;;;;41.10;26.37;;;;;;;14.22;100.00;103236.22;5002407;28;20443;-70
2023/10/13 00:59:55;;;;;;;43.30;28.23;;;;;;;14.27;100.00;103238.44;4994755;28;20446;-68
2023/10/13 01:05:02;;;;;;;40.73;27.10;;;;;;;14.33;100.00;103280.97;4992436;28;20435;-70
2023/10/13 01:07:28;;;;;;;33.33;24.33;;;;;;;14.37;100.00;103298.50;4995254;28;20905;-69
2023/10/13 01:09:54;;;;;;;41.27;26.50;;;;;;;14.25;100.00;103259.34;4998396;28;20448;-69
2023/10/13 01:12:20;;;;;;;34.00;25.17;;;;;;;14.44;100.00;103285.22;4995316;28;20193;-69
2023/10/13 01:14:46;;;;;;;42.13;27.60;;;;;;;14.32;100.00;103240.59;4993799;28;20498;-70
2023/10/13 01:17:11;;;;;;;41.27;27.40;;;;;;;14.52;100.00;103265.50;4993862;28;20185;-69
2023/10/13 01:19:42;;;;;;;37.30;24.53;;;;;;;14.51;100.00;103236.78;4996599;28;20561;-70
2023/10/13 01:22:09;;;;;;;36.70;26.90;;;;;;;14.61;100.00;103261.78;4995451;28;20186;-69
2023/10/13 01:24:35;;;;;;;39.40;28.60;;;;;;;14.31;100.00;103209.22;4992532;28;20833;-69
2023/10/13 01:27:16;;;;;;;40.23;27.23;;;;;;;14.64;100.00;103243.41;4998299;28;20976;-69
2023/10/13 01:29:47;;;;;;;37.93;27.10;;;;;;;14.65;100.00;103237.00;4995421;28;20706;-70
2023/10/13 01:32:14;;;;;;;33.90;25.90;;;;;;;14.53;100.00;103210.50;4991312;28;20467;-69
2023/10/13 01:34:40;;;;;;;29.87;23.47;;;;;;;14.50;100.00;103191.91;5000124;28;20448;-70
2023/10/13 01:37:05;;;;;;;33.33;23.50;;;;;;;14.47;100.00;103175.00;5003729;28;20455;-69
2023/10/13 01:39:31;;;;;;;35.83;25.63;;;;;;;14.67;100.00;103199.88;4992925;28;20262;-69
2023/10/13 01:41:57;;;;;;;33.50;25.60;;;;;;;14.74;100.00;103207.28;4999859;28;20205;-69
2023/10/13 01:44:33;;;;;;;33.97;25.23;;;;;;;14.71;100.00;103191.41;4999580;28;20227;-69
2023/10/13 01:46:59;;;;;;;32.30;25.13;;;;;;;14.81;100.00;103221.78;4996171;28;20436;-69
2023/10/13 01:49:27;;;;;;;30.40;22.13;;;;;;;14.74;100.00;103189.22;4997211;28;21048;-69
2023/10/13 01:51:53;;;;;;;30.47;21.53;;;;;;;14.79;100.00;103188.72;4999670;28;21113;-69
2023/10/13 01:54:21;;;;;;;36.67;24.57;;;;;;;14.94;100.00;103199.69;4994818;28;20445;-69
2023/10/13 01:56:48;;;;;;;30.63;22.80;;;;;;;14.67;100.00;103147.69;4997084;28;20703;-69
2023/10/13 01:59:15;;;;;;;33.47;24.20;;;;;;;14.79;100.00;103153.59;5000803;28;20461;-69
2023/10/13 02:01:41;;;;;;;30.50;23.20;;;;;;;14.96;100.00;103174.19;4998025;28;20452;-70
2023/10/13 02:04:07;;;;;;;30.57;22.40;;;;;;;14.96;100.00;103187.69;4997069;28;20450;-70
2023/10/13 02:06:36;;;;;;;34.20;22.43;;;;;;;14.95;100.00;103194.09;4996612;28;21005;-69
2023/10/13 02:09:16;;;;;;;35.33;24.63;;;;;;;14.76;100.00;103168.28;4998372;28;20557;-69
2023/10/13 02:11:47;;;;;;;34.53;23.77;;;;;;;14.97;100.00;103207.44;4994024;28;20551;-69
2023/10/13 02:14:17;;;;;;;32.60;25.00;;;;;;;14.94;100.00;103194.28;4998953;28;20532;-69
2023/10/13 02:16:46;;;;;;;25.70;20.00;;;;;;;14.99;100.00;103187.34;4994919;28;20455;-69
2023/10/13 02:19:15;;;;;;;28.00;22.40;;;;;;;14.84;100.00;103156.63;4998693;28;20543;-70
2023/10/13 02:21:43;;;;;;;31.70;22.57;;;;;;;15.01;100.00;103179.91;5001594;28;20444;-69
2023/10/13 02:24:18;;;;;;;28.90;23.00;;;;;;;14.99;100.00;103175.72;4995614;28;20352;-69
2023/10/13 02:26:44;;;;;;;30.80;22.73;;;;;;;15.02;100.00;103183.47;5000306;28;20986;-69
2023/10/13 02:29:13;;;;;;;27.83;22.13;;;;;;;15.03;100.00;103179.75;4998387;28;20979;-69
2023/10/13 02:31:42;;;;;;;25.23;20.80;;;;;;;15.04;100.00;103182.28;4998791;28;20530;-70
2023/10/13 02:34:08;;;;;;;26.27;20.80;;;;;;;14.86;100.00;103155.44;5002551;28;20455;-69
2023/10/13 02:36:48;;;;;;;26.80;21.80;;;;;;;15.10;100.00;103197.81;4997318;28;20440;-69
2023/10/13 02:39:17;;;;;;;28.10;22.07;;;;;;;15.10;100.00;103196.94;4996862;28;20463;-70
2023/10/13 02:41:48;;;;;;;25.27;20.20;;;;;;;15.12;100.00;103195.75;4999022;28;20433;-69
2023/10/13 02:44:26;;;;;;;24.53;20.87;;;;;;;15.04;100.00;103179.59;4999928;28;20520;-69
2023/10/13 02:46:55;;;;;;;22.40;20.00;;;;;;;15.16;100.00;103190.88;4998727;28;20609;-69
2023/10/13 02:49:26;;;;;;;25.43;19.40;;;;;;;15.20;100.00;103186.81;4996289;28;21001;-69
2023/10/13 02:51:52;;;;;;;25.27;20.43;;;;;;;15.25;100.00;103183.59;4997327;28;20444;-69
2023/10/13 02:54:18;;;;;;;27.77;18.90;;;;;;;14.89;100.00;103128.06;4991897;28;20523;-70
2023/10/13 02:56:56;;;;;;;26.70;20.80;;;;;;;15.24;100.00;103190.00;4994601;28;20532;-69
2023/10/13 02:59:48;;;;;;;25.17;18.83;;;;;;;15.19;100.00;103177.00;5002391;28;20511;-69
2023/10/13 03:02:18;;;;;;;25.90;19.00;;;;;;;15.36;100.00;103200.28;4996817;28;20457;-69
2023/10/13 03:04:48;;;;;;;23.13;18.93;;;;;;;15.17;100.00;103161.97;4999178;28;20448;-70
2023/10/13 03:07:23;;;;;;;21.97;17.17;;;;;;;15.45;100.00;103206.53;4995434;28;20497;-70
2023/10/13 03:09:52;;;;;;;23.70;18.10;;;;;;;15.34;100.00;103190.66;5000320;28;20448;-69
2023/10/13 03:12:21;;;;;;;21.20;17.90;;;;;;;15.47;100.00;103218.00;4998334;28;20916;-70
2023/10/13 03:15:10;;;;;;;21.00;15.50;;;;;;;15.20;100.00;103175.16;4997857;28;20475;-69
2023/10/13 03:17:37;;;;;;;18.53;15.07;;;;;;;15.46;100.00;103229.00;4999079;28;20585;-69
2023/10/13 03:20:05;;;;;;;19.53;16.13;;;;;;;15.54;100.00;103210.03;5000004;28;20440;-70
2023/10/13 03:22:31;;;;;;;21.00;16.67;;;;;;;15.25;100.00;103167.38;4994903;28;20759;-69
2023/10/13 03:25:04;;;;;;;21.60;16.67;;;;;;;15.55;100.00;103212.56;4996472;28;20471;-69
2023/10/13 03:27:41;;;;;;;22.10;14.47;;;;;;;15.23;100.00;103161.28;4997375;28;20473;-69
2023/10/13 03:30:52;;;;;;;16.03;13.77;;;;;;;15.45;100.00;103195.69;4996279;28;20921;-70
2023/10/13 03:32:56;;;;;;;22.90;15.97;;;;;;;15.48;100.00;103189.09;4988878;28;20449;-69
2023/10/13 03:35:25;;;;;;;19.70;14.90;;;;;;;15.48;100.00;103176.41;4999487;28;20444;-69
2023/10/13 03:37:55;;;;;;;21.37;15.03;;;;;;;15.44;100.00;103161.53;4996930;28;20558;-70
2023/10/13 03:45:39;;;;;;;14.47;12.67;;;;;;;15.58;100.00;103179.75;4994611;28;20436;-69
2023/10/13 03:48:09;;;;;;;16.70;12.30;;;;;;;15.56;100.00;103164.72;4997266;28;20547;-70
2023/10/13 03:50:57;;;;;;;13.63;11.77;;;;;;;15.56;100.00;103167.41;4998923;28;20449;-69
2023/10/13 03:53:25;;;;;;;12.50;9.73;;;;;;;15.54;100.00;103162.19;4997255;28;20468;-70
2023/10/13 03:56:07;;;;;;;16.20;10.77;;;;;;;15.36;100.00;103127.28;4994318;28;20444;-69
2023/10/13 03:58:38;;;;;;;15.43;12.37;;;;;;;15.36;100.00;103113.75;4992961;28;20456;-69
2023/10/13 04:01:05;;;;;;;20.23;16.30;;;;;;;15.50;100.00;103133.78;4997872;28;20428;-69
2023/10/13 04:03:35;;;;;;;18.57;15.27;;;;;;;15.65;100.00;103142.03;4995266;28;20472;-70
2023/10/13 04:06:06;;;;;;;26.17;19.77;;;;;;;15.72;100.00;103140.31;4994748;28;20444;-69
2023/10/13 04:09:15;;;;;;;27.33;20.70;;;;;;;15.71;100.00;103135.09;4994239;28;20491;-69
2023/10/13 04:12:18;;;;;;;25.20;18.83;;;;;;;15.62;100.00;103122.59;4991640;28;20540;-69
2023/10/13 04:17:14;;;;;;;31.07;22.50;;;;;;;15.54;100.00;103102.69;4991241;28;21146;-70
2023/10/13 04:24:08;;;;;;;30.03;23.97;;;;;;;15.71;100.00;103119.72;4998270;28;20195;-69
2023/10/13 04:36:14;;;;;;;28.00;20.20;;;;;;;15.37;100.00;103069.47;4994316;28;20905;-69
2023/10/13 04:41:39;;;;;;;23.30;18.47;;;;;;;15.40;100.00;103052.06;4993576;28;20929;-69
2023/10/13 04:49:28;;;;;;;28.17;21.27;;;;;;;15.62;100.00;103073.88;4997174;28;20508;-69
2023/10/13 04:52:00;;;;;;;24.40;18.97;;;;;;;15.38;100.00;103033.28;4996158;28;20539;-70
2023/10/13 04:54:33;;;;;;;23.80;19.47;;;;;;;15.65;100.00;103076.25;4994941;28;20502;-69
2023/10/13 04:57:23;;;;;;;25.60;19.73;;;;;;;15.65;100.00;103066.28;4989988;28;20442;-69
2023/10/13 05:05:45;;;;;;;30.73;21.40;;;;;;;15.64;100.00;103040.25;4992427;28;20457;-69
2023/10/13 05:51:46;;;;;;;28.27;19.30;;;;;;;15.65;100.00;102981.56;4995421;28;20447;-69
2023/10/13 06:29:46;;;;;;;17.13;11.60;;;;;;;15.49;100.00;102928.44;4997809;28;20439;-69
2023/10/13 06:32:12;;;;;;;12.93;9.40;;;;;;;15.50;100.00;102912.00;4998245;28;20439;-69
2023/10/13 06:34:44;;;;;;;14.00;10.03;;;;;;;15.27;100.00;102892.25;4999073;28;20177;-69
2023/10/13 06:37:30;;;;;;;9.20;7.83;;;;;;;15.47;100.00;102901.56;5000132;28;20562;-69
2023/10/13 06:39:57;;;;;;;13.93;10.13;;;;;;;15.12;100.00;102867.84;5000785;28;20863;-69
2023/10/13 06:42:27;;;;;;;11.00;7.87;;;;;;;15.43;100.00;102897.53;4998392;28;20436;-69
2023/10/13 06:44:54;;;;;;;10.50;7.30;;;;;;;15.14;100.00;102850.44;5001347;28;20527;-69
2023/10/13 06:47:20;;;;;;;10.87;7.27;;;;;;;15.31;100.00;102882.78;4995608;28;20491;-69
2023/10/13 06:49:48;;;;;;;8.50;6.60;;;;;;;15.42;100.00;102892.31;5001211;28;20452;-70
2023/10/13 06:52:15;;;;;;;9.43;6.83;;;;;;;15.41;100.00;102882.53;4997211;28;20486;-70
2023/10/13 06:54:42;;;;;;;9.17;6.43;;;;;;;15.07;100.00;102825.19;4996163;28;20465;-69
2023/10/13 06:57:14;;;;;;;10.50;8.20;;;;;;;15.44;100.00;102883.00;4998523;28;20480;-70
2023/10/13 06:59:42;;;;;;;10.40;7.30;;;;;;;15.46;100.00;102878.25;4994525;28;20441;-70
2023/10/13 07:02:09;;;;;;;12.50;6.90;;;;;;;15.47;100.00;102869.09;4997618;28;20451;-70
2023/10/13 07:04:41;;;;;;;7.53;5.80;;;;;;;15.46;100.00;102875.53;4999424;28;20439;-69
2023/10/13 07:07:10;;;;;;;10.57;6.70;;;;;;;15.22;100.00;102817.13;4998392;28;20467;-70
2023/10/13 07:12:22;;;;;;;7.60;5.83;;;;;;;15.38;100.00;102843.16;4996038;28;20501;-70
2023/10/13 07:14:59;;;;;;;7.90;6.40;;;;;;;15.49;100.00;102863.53;4996846;28;20522;-70
2023/10/13 07:17:25;;;;;;;10.87;6.80;;;;;;;15.44;100.00;102850.53;4997446;28;20530;-70
2023/10/13 07:20:13;;;;;;;9.03;6.23;;;;;;;15.51;100.00;102864.19;4990490;28;20531;-69
2023/10/13 07:22:39;;;;;;;8.20;5.70;;;;;;;15.52;100.00;102872.13;4998109;28;20212;-70
2023/10/13 07:25:06;;;;;;;9.57;7.30;;;;;;;15.52;100.00;102864.00;4994457;28;20470;-69
2023/10/13 07:27:35;;;;;;;9.00;6.07;;;;;;;15.51;100.00;102864.19;5001471;28;20460;-69
2023/10/13 07:30:14;;;;;;;11.50;6.20;;;;;;;15.56;100.00;102859.06;4996575;28;21092;-70
2023/10/13 07:32:45;;;;;;;10.33;5.60;;;;;;;15.47;100.00;102850.19;4997934;28;20506;-70
2023/10/13 07:35:17;;;;;;;8.63;5.20;;;;;;;15.67;100.00;102863.19;5000912;28;20454;-70
2023/10/13 07:37:44;;;;;;;8.10;4.23;;;;;;;15.64;100.00;102850.03;5000519;28;20466;-69
2023/10/13 07:43:00;;;;;;;6.30;3.30;;;;;;;15.71;100.00;102846.47;5000614;28;20478;-69
2023/10/13 07:45:35;;;;;;;6.10;3.77;;;;;;;15.85;100.00;102850.19;5006760;28;20424;-70
2023/10/13 07:48:12;;;;;;;9.43;3.40;;;;;;;15.81;100.00;102817.25;4997670;28;20463;-69
2023/10/13 07:50:39;;;;;;;6.03;2.80;;;;;;;15.89;100.00;102826.31;4999942;28;20458;-69
2023/10/13 07:53:22;;;;;;;8.57;3.40;;;;;;;15.99;100.00;102829.56;5000199;28;20471;-70
2023/10/13 07:55:54;;;;;;;6.47;2.67;;;;;;;15.88;100.00;102806.56;5001104;28;20417;-70
2023/10/13 07:58:23;;;;;;;10.80;3.17;;;;;;;15.38;100.00;102718.78;5003601;28;21017;-70
2023/10/13 08:00:53;;;;;;;6.10;3.00;;;;;;;16.00;100.00;102807.75;5001118;28;20911;-69
2023/10/13 08:08:38;;;;;;;5.23;2.97;;;;;;;16.01;100.00;102800.47;4998583;28;20534;-70
2023/10/13 08:11:11;;;;;;;8.83;3.10;;;;;;;15.72;100.00;102764.25;4997065;28;20447;-70
2023/10/13 08:13:46;;;;;;;7.33;3.13;;;;;;;15.82;100.00;102758.56;5001460;28;20428;-70
2023/10/13 08:16:22;;;;;;;8.77;3.60;;;;;;;15.88;100.00;102746.16;4996721;28;20442;-70
2023/10/13 08:18:49;;;;;;;7.87;3.30;;;;;;;15.45;100.00;102681.00;5000218;28;20445;-70
2023/10/13 08:21:22;;;;;;;11.03;3.17;;;;;;;15.93;100.00;102724.78;4999625;28;20466;-70
2023/10/13 08:26:30;;;;;;;11.03;3.23;;;;;;;14.79;100.00;102510.66;4998326;28;20417;-69
2023/10/13 08:34:59;;;;;;;9.37;2.83;;;;;;;15.83;100.00;102676.38;4999067;28;20797;-70
2023/10/13 08:37:47;;;;;;;7.80;3.20;;;;;;;15.84;100.00;102675.34;4990646;28;20918;-70
2023/10/13 08:40:20;;;;;;;11.00;3.80;;;;;;;15.73;100.00;102636.06;5002572;28;20481;-70
2023/10/13 08:53:29;;;;;;;;;;;;;;;;;;;;;
2023/10/13 09:04:34;;;;;;;10.70;5.70;;;;;;;15.83;100.00;102557.31;5004422;28;20412;-70
2023/10/13 09:07:09;;;;;;;10.27;4.10;;;;;;;15.78;100.00;102546.22;5001521;28;20478;-69
2023/10/13 09:12:14;;;;;;;12.30;4.97;;;;;;;15.99;100.00;102564.34;4998897;28;20478;-70
2023/10/13 09:14:56;;;;;;;10.00;4.40;;;;;;;16.02;100.00;102550.41;5001934;28;20439;-70
2023/10/13 09:17:35;;;;;;;13.03;4.50;;;;;;;15.65;100.00;102495.50;4999530;28;20523;-69
2023/10/13 09:25:35;;;;;;;16.63;5.40;;;;;;;16.18;100.00;102527.69;4997921;28;20836;-69
2023/10/13 09:28:18;;;;;;;10.37;5.17;;;;;;;16.25;100.00;102526.69;5004513;28;20471;-70
2023/10/13 09:30:47;;;;;;;12.43;5.30;;;;;;;16.30;100.00;102518.00;5004862;28;20456;-70
2023/10/13 09:33:16;;;;;;;12.60;4.63;;;;;;;16.40;100.00;102495.97;5002471;28;20474;-70
2023/10/13 09:35:49;;;;;;;11.43;4.90;;;;;;;16.43;100.00;102496.44;5000890;28;20515;-70
2023/10/13 09:38:15;;;;;;;14.43;5.40;;;;;;;16.33;100.00;102455.31;5003068;28;20448;-70
2023/10/13 09:40:46;;;;;;;11.50;5.43;;;;;;;16.43;100.00;102457.66;4999802;28;20515;-70
2023/10/13 09:43:14;;;;;;;15.20;5.37;;;;;;;16.64;100.00;102502.81;5002567;28;20419;-70
2023/10/13 09:45:56;;;;;;;11.40;5.20;;;;;;;16.70;100.00;102491.19;5006831;28;20486;-70
2023/10/13 09:48:35;;;;;;;17.33;6.80;;;;;;;16.65;100.00;102459.25;5001999;28;20467;-69
2023/10/13 09:51:06;;;;;;;18.50;5.70;;;;;;;16.62;100.00;102456.13;5002598;28;20427;-69
2023/10/13 09:53:33;;;;;;;15.43;5.63;;;;;;;16.94;100.00;102452.78;4999978;28;20439;-69
2023/10/13 09:56:19;;;;;;;12.37;5.53;;;;;;;16.86;100.00;102431.25;5001918;28;20523;-70
2023/10/13 09:59:18;;;;;;;23.20;5.90;;;;;;;17.14;100.00;102460.16;5002600;28;20444;-70
2023/10/13 10:01:51;;;;;;;14.10;5.90;;;;;;;17.33;100.00;102453.13;4996789;28;20455;-69
2023/10/13 10:04:19;;;;;;;14.00;6.00;;;;;;;17.12;100.00;102379.00;5012113;28;20496;-70
2023/10/13 10:06:57;;;;;;;9.67;4.10;;;;;;;17.47;100.00;102400.56;4998335;28;20532;-70
2023/10/13 10:09:34;;;;;;;10.80;5.10;;;;;;;17.51;100.00;102398.28;5000233;28;20885;-70
2023/10/13 10:12:36;;;;;;;11.97;5.13;;;;;;;17.73;100.00;102374.50;4999815;28;20458;-70
2023/10/13 10:15:35;;;;;;;15.23;5.53;;;;;;;17.80;100.00;102372.66;5001482;28;20432;-70
2023/10/13 10:18:02;;;;;;;20.93;6.57;;;;;;;17.77;100.00;102325.03;4995228;28;20449;-71
2023/10/13 10:20:51;;;;;;;10.60;5.20;;;;;;;17.83;100.00;102323.38;4996461;28;20444;-70
2023/10/13 10:23:28;;;;;;;10.13;5.00;;;;;;;17.81;100.00;102287.47;5000155;28;20471;-71
2023/10/13 10:26:08;;;;;;;12.60;4.47;;;;;;;17.94;100.00;102275.75;5001651;28;20436;-70
2023/10/13 10:28:38;;;;;;;14.27;5.93;;;;;;;17.92;100.00;102229.81;5002474;28;20490;-70
2023/10/13 10:31:12;;;;;;;9.03;4.07;;;;;;;17.98;100.00;102206.41;5003910;28;20440;-69
2023/10/13 10:33:37;;;;;;;10.37;4.10;;;;;;;17.81;100.00;102181.63;4992381;28;20444;-71
2023/10/13 10:36:16;;;;;;;8.97;4.43;;;;;;;17.28;100.00;102055.09;5000941;28;21440;-71
2023/10/13 10:38:53;;;;;;;10.63;4.13;;;;;;;17.72;100.00;102143.00;4992134;28;20276;-71
2023/10/13 10:41:29;;;;;;;12.80;4.77;;;;;;;17.69;100.00;102094.59;5000871;28;20437;-70
2023/10/13 10:43:55;;;;;;;16.67;5.23;;;;;;;17.83;100.00;102077.22;4998654;28;20436;-71
2023/10/13 10:46:28;;;;;;;13.90;5.27;;;;;;;18.03;100.00;102085.25;4999972;28;20495;-70
2023/10/13 10:49:00;;;;;;;11.40;4.80;;;;;;;18.10;100.00;102058.06;4999805;28;20235;-70
2023/10/13 10:51:33;;;;;;;15.10;6.37;;;;;;;18.11;100.00;102026.31;4999859;28;20429;-71
2023/10/13 10:54:11;;;;;;;14.03;5.40;;;;;;;18.12;100.00;101993.53;4995294;28;20451;-70
2023/10/13 10:56:37;;;;;;;10.27;5.47;;;;;;;18.34;100.00;101982.25;5000565;28;20424;-71
2023/10/13 10:59:08;;;;;;;11.70;5.03;;;;;;;18.40;100.00;101921.59;4995034;28;20510;-71
2023/10/13 11:01:46;;;;;;;10.20;4.93;;;;;;;18.35;100.00;101888.88;5005103;28;20196;-71
2023/10/13 11:04:24;;;;;;;12.50;4.77;;;;;;;18.28;100.00;101805.59;5002552;28;20440;-70
2023/10/13 11:06:57;;;;;;;12.13;4.50;;;;;;;17.94;100.00;101668.56;5001926;28;20428;-70
2023/10/13 11:09:45;;;;;;;13.43;5.43;;;;;;;18.60;100.00;101763.81;4999494;28;20563;-70
2023/10/13 11:12:15;;;;;;;11.00;5.77;;;;;;;18.50;100.00;101707.31;5000906;28;20445;-71
2023/10/13 11:14:48;;;;;;;12.97;5.00;;;;;;;18.50;100.00;101667.38;5002531;28;20494;-70
2023/10/13 11:17:33;;;;;;;13.33;5.63;;;;;;;18.34;100.00;101634.63;4995804;28;20950;-70
2023/10/13 11:20:15;;;;;;;10.40;4.10;;;;;;;18.40;100.00;101596.50;4996969;28;20440;-71
2023/10/13 11:22:46;;;;;;;13.23;5.17;;;;;;;18.52;100.00;101569.38;5002334;28;20544;-70
2023/10/13 11:25:29;;;;;;;10.43;4.83;;;;;;;18.38;100.00;101506.28;5004806;28;20427;-70
2023/10/13 11:27:58;;;;;;;18.20;7.10;;;;;;;18.75;100.00;101527.84;5003843;28;20894;-70
2023/10/13 11:30:25;;;;;;;12.47;4.77;;;;;;;18.74;100.00;101507.13;5000221;28;20456;-70
2023/10/13 11:33:07;;;;;;;10.87;5.07;;;;;;;18.63;100.00;101491.63;4995909;28;20444;-70
2023/10/13 11:35:49;;;;;;;21.13;7.53;;;;;;;18.41;100.00;101404.50;4999048;28;20444;-70
2023/10/13 11:38:27;;;;;;;9.50;4.23;;;;;;;18.62;100.00;101422.06;4997758;28;21195;-70
2023/10/13 11:41:08;;;;;;;14.20;6.80;;;;;;;18.52;100.00;101400.94;4996462;28;20435;-70
2023/10/13 11:46:16;;;;;;;13.37;4.93;;;;;;;18.76;100.00;101381.91;4997623;28;20412;-70
2023/10/13 11:48:43;;;;;;;17.00;5.83;;;;;;;18.71;100.00;101385.31;4997111;28;20522;-69
2023/10/13 11:51:23;;;;;;;13.20;5.03;;;;;;;18.85;100.00;101362.25;4999509;28;20447;-70
2023/10/13 11:53:53;;;;;;;12.73;5.20;;;;;;;18.92;100.00;101349.38;4999819;28;20428;-70
2023/10/13 11:56:21;;;;;;;14.17;4.80;;;;;;;18.59;100.00;101278.56;5001190;28;20462;-70
2023/10/13 11:58:47;;;;;;;16.03;5.80;;;;;;;19.06;100.00;101306.38;4996270;28;20462;-70
2023/10/13 12:11:50;;;;;;;14.50;4.90;;;;;;;18.61;100.00;101217.50;4999328;28;20571;-70
2023/10/13 12:14:36;;;;;;;12.20;4.20;;;;;;;18.39;100.00;101173.88;4997613;28;20793;-70
2023/10/13 12:17:10;;;;;;;18.10;6.30;;;;;;;18.47;100.00;101199.81;5000620;28;20463;-70
2023/10/13 12:19:36;;;;;;;14.80;4.80;;;;;;;18.39;100.00;101192.06;4999515;28;20436;-70
2023/10/13 12:22:07;;;;;;;9.93;4.33;;;;;;;18.28;100.00;101181.03;4995209;28;20443;-70
2023/10/13 12:27:18;;;;;;;15.20;5.40;;;;;;;18.61;100.00;101203.09;5002656;28;20538;-70
2023/10/13 12:29:48;;;;;;;11.73;5.13;;;;;;;18.61;100.00;101186.78;5001195;28;20471;-70
2023/10/13 12:32:14;;;;;;;19.63;5.60;;;;;;;18.73;100.00;101180.25;4998702;28;20436;-70
2023/10/13 12:51:40;;;;;;;15.30;5.40;;;;;;;18.78;100.00;101065.38;4997951;28;20446;-71
2023/10/13 12:54:13;;;;;;;15.07;4.63;;;;;;;18.60;100.00;101011.25;4998870;28;20950;-71
2023/10/13 12:56:42;;;;;;;17.50;5.20;;;;;;;18.23;100.00;100947.41;4994091;28;20443;-70
2023/10/13 12:59:15;;;;;;;15.90;5.37;;;;;;;18.71;100.00;101010.34;4993874;28;20462;-71
2023/10/13 13:01:42;;;;;;;12.37;5.07;;;;;;;18.61;100.00;100997.44;4998368;28;20972;-70
2023/10/13 13:04:11;;;;;;;10.73;4.97;;;;;;;18.42;100.00;100941.72;5000112;28;20931;-73
2023/10/13 13:06:37;;;;;;;13.20;5.27;;;;;;;18.59;100.00;100996.84;4994449;28;20443;-70
2023/10/13 13:09:02;;;;;;;9.90;4.97;;;;;;;18.49;100.00;100970.38;5002255;28;20834;-71
2023/10/13 13:11:31;;;;;;;11.50;5.17;;;;;;;18.57;100.00;100966.38;4999847;28;20686;-71
2023/10/13 13:13:57;;;;;;;23.13;5.70;;;;;;;18.45;100.00;100925.75;4999165;28;20186;-71
2023/10/13 13:16:30;;;;;;;14.70;6.00;;;;;;;18.59;100.00;100937.09;5002440;28;20851;-71
2023/10/13 13:18:55;;;;;;;17.63;6.17;;;;;;;18.53;100.00;100930.75;5000365;28;20220;-71
2023/10/13 13:21:24;;;;;;;18.20;6.10;;;;;;;18.49;100.00;100937.78;4996496;28;20848;-71
2023/10/13 13:23:55;;;;;;;11.80;5.77;;;;;;;18.42;100.00;100911.84;5000023;28;20267;-70
2023/10/13 13:26:24;;;;;;;12.00;6.30;;;;;;;18.36;100.00;100910.94;5002267;28;21015;-70
2023/10/13 13:28:52;;;;;;;14.23;6.27;;;;;;;18.29;100.00;100899.47;4997974;28;20547;-73
2023/10/13 13:31:31;;;;;;;14.57;5.93;;;;;;;18.47;100.00;100923.63;5000047;28;20439;-73
2023/10/13 13:33:56;;;;;;;16.03;5.37;;;;;;;18.38;100.00;100903.38;5000058;28;20436;-70
2023/10/13 13:36:22;;;;;;;18.40;7.60;;;;;;;18.19;100.00;100851.22;5000031;28;20439;-72
2023/10/13 13:38:51;;;;;;;14.07;5.90;;;;;;;18.26;100.00;100887.19;5004273;28;20197;-72
2023/10/13 13:41:17;;;;;;;14.50;5.50;;;;;;;18.13;100.00;100863.09;5000731;28;20193;-72
2023/10/13 13:46:16;;;;;;;17.80;7.70;;;;;;;18.03;100.00;100865.66;5002901;28;20439;-72
2023/10/13 13:48:42;;;;;;;20.53;6.50;;;;;;;18.13;100.00;100906.53;5004547;28;20471;-72
2023/10/13 13:51:26;;;;;;;12.27;5.60;;;;;;;17.94;100.00;100891.56;5003188;28;20444;-73
2023/10/13 13:53:52;;;;;;;22.53;6.20;;;;;;;18.03;100.00;100926.19;5004379;28;20184;-71
2023/10/13 13:56:18;;;;;;;13.53;6.00;;;;;;;17.92;100.00;100920.84;5000652;28;20479;-72
2023/10/13 13:58:48;;;;;;;15.70;6.00;;;;;;;17.95;100.00;100939.34;4999075;28;20466;-73
2023/10/13 14:01:18;;;;;;;16.30;5.47;;;;;;;17.33;100.00;100835.19;4994246;28;20445;-73
2023/10/13 14:03:47;;;;;;;14.53;6.43;;;;;;;17.97;100.00;100939.94;4995844;28;20506;-72
2023/10/13 14:06:24;;;;;;;22.27;6.50;;;;;;;17.78;100.00;100913.00;4995665;28;20828;-71
2023/10/13 14:08:56;;;;;;;15.23;5.40;;;;;;;17.91;100.00;100940.91;5003430;28;20970;-73
2023/10/13 14:14:11;;;;;;;15.63;6.43;;;;;;;17.75;100.00;100920.78;4997732;28;20453;-73
2023/10/13 14:16:37;;;;;;;13.50;6.70;;;;;;;17.62;100.00;100894.81;4998377;28;20443;-71
2023/10/13 14:19:07;;;;;;;15.47;6.30;;;;;;;18.06;100.00;100960.97;5000089;28;20452;-71
2023/10/13 14:21:34;;;;;;;16.60;6.87;;;;;;;18.16;100.00;100929.63;4998310;28;20200;-72
2023/10/13 14:24:01;;;;;;;15.97;5.83;;;;;;;18.15;100.00;100923.41;4998007;28;20451;-71
2023/10/13 14:26:27;;;;;;;14.60;6.23;;;;;;;17.86;100.00;100870.28;5001951;28;20535;-72
2023/10/13 14:29:03;;;;;;;13.83;5.83;;;;;;;18.17;100.00;100888.69;4996751;28;20573;-71
2023/10/13 14:31:29;;;;;;;13.40;5.73;;;;;;;18.17;100.00;100866.97;4998922;28;20185;-71
2023/10/13 14:33:55;;;;;;;15.87;6.00;;;;;;;17.68;100.00;100771.75;5001051;28;21017;-71
2023/10/13 14:36:20;;;;;;;12.00;5.30;;;;;;;18.04;100.00;100805.69;4995620;28;20448;-72
2023/10/13 14:38:49;;;;;;;18.90;5.97;;;;;;;18.39;100.00;100842.56;4993712;28;20256;-72
2023/10/13 14:41:16;;;;;;;19.53;7.07;;;;;;;18.37;100.00;100839.28;4993328;28;20209;-72
2023/10/13 14:43:47;;;;;;;12.70;5.60;;;;;;;17.96;100.00;100780.88;4992609;28;20467;-72
2023/10/13 14:46:16;;;;;;;18.30;6.30;;;;;;;17.80;100.00;100745.38;4994523;28;20439;-72
2023/10/13 14:48:44;;;;;;;17.53;6.47;;;;;;;18.07;100.00;100796.22;5004677;28;21117;-71
2023/10/13 14:51:12;;;;;;;13.83;6.30;;;;;;;18.27;100.00;100810.09;4985200;28;20480;-72
2023/10/13 14:53:43;;;;;;;13.50;6.50;;;;;;;17.58;100.00;100696.47;4996780;28;20506;-72
2023/10/13 14:56:09;;;;;;;14.10;6.33;;;;;;;18.17;100.00;100780.09;4998508;28;20437;-72
2023/10/13 14:58:35;;;;;;;14.70;6.93;;;;;;;17.86;100.00;100734.63;4991083;28;20457;-72